sensor_id;sensor_type;location;lat;lon;timestamp;P1;durP1;ratioP1;P2;durP2;ratioP2
2802;SDS011;1409;51.154;6.938;2024-01-25T00:00:10;14.80;;;4.03;;
2802;SDS011;1409;51.154;6.938;2024-01-25T00:02:38;13.57;;;3.93;;
2802;SDS011;1409;51.154;6.938;2024-01-25T00:05:09;18.50;;;3.50;;
2802;SDS011;1409;51.154;6.938;2024-01-25T00:07:44;17.97;;;4.20;;
2802;SDS011;1409;51.154;6.938;2024-01-25T00:10:13;17.40;;;4.10;;
2802;SDS011;1409;51.154;6.938;2024-01-25T00:12:42;14.67;;;4.00;;
2802;SDS011;1409;51.154;6.938;2024-01-25T00:15:13;15.43;;;5.03;;
2802;SDS011;1409;51.154;6.938;2024-01-25T00:17:41;18.20;;;4.03;;
2802;SDS011;1409;51.154;6.938;2024-01-25T00:20:12;15.97;;;4.80;;
2802;SDS011;1409;51.154;6.938;2024-01-25T00:22:41;11.97;;;4.53;;
2802;SDS011;1409;51.154;6.938;2024-01-25T00:25:09;21.57;;;5.00;;
2802;SDS011;1409;51.154;6.938;2024-01-25T00:27:38;17.03;;;4.50;;
2802;SDS011;1409;51.154;6.938;2024-01-25T00:30:07;17.23;;;5.27;;
2802;SDS011;1409;51.154;6.938;2024-01-25T00:32:36;19.30;;;5.10;;
2802;SDS011;1409;51.154;6.938;2024-01-25T00:35:05;11.63;;;4.57;;
2802;SDS011;1409;51.154;6.938;2024-01-25T00:37:38;18.00;;;5.03;;
2802;SDS011;1409;51.154;6.938;2024-01-25T00:40:07;24.67;;;4.67;;
2802;SDS011;1409;51.154;6.938;2024-01-25T00:42:39;18.57;;;4.53;;
2802;SDS011;1409;51.154;6.938;2024-01-25T00:45:09;25.27;;;5.33;;
2802;SDS011;1409;51.154;6.938;2024-01-25T00:47:39;15.10;;;4.37;;
2802;SDS011;1409;51.154;6.938;2024-01-25T00:50:07;19.67;;;4.27;;
2802;SDS011;1409;51.154;6.938;2024-01-25T00:52:38;17.20;;;4.77;;
2802;SDS011;1409;51.154;6.938;2024-01-25T00:55:07;17.53;;;4.47;;
2802;SDS011;1409;51.154;6.938;2024-01-25T00:57:36;16.50;;;4.20;;
2802;SDS011;1409;51.154;6.938;2024-01-25T01:00:06;23.47;;;4.80;;
2802;SDS011;1409;51.154;6.938;2024-01-25T01:02:36;21.73;;;4.40;;
2802;SDS011;1409;51.154;6.938;2024-01-25T01:05:06;17.87;;;4.70;;
2802;SDS011;1409;51.154;6.938;2024-01-25T01:07:35;17.70;;;4.47;;
2802;SDS011;1409;51.154;6.938;2024-01-25T01:10:06;17.07;;;4.93;;
2802;SDS011;1409;51.154;6.938;2024-01-25T01:12:35;17.70;;;4.27;;
2802;SDS011;1409;51.154;6.938;2024-01-25T01:15:04;14.37;;;4.07;;
2802;SDS011;1409;51.154;6.938;2024-01-25T01:17:33;16.23;;;4.30;;
2802;SDS011;1409;51.154;6.938;2024-01-25T01:20:02;19.63;;;5.13;;
2802;SDS011;1409;51.154;6.938;2024-01-25T01:22:31;18.40;;;4.17;;
2802;SDS011;1409;51.154;6.938;2024-01-25T01:24:59;17.73;;;3.70;;
2802;SDS011;1409;51.154;6.938;2024-01-25T01:27:30;17.23;;;4.83;;
2802;SDS011;1409;51.154;6.938;2024-01-25T01:29:58;16.97;;;4.70;;
2802;SDS011;1409;51.154;6.938;2024-01-25T01:32:27;21.60;;;4.30;;
2802;SDS011;1409;51.154;6.938;2024-01-25T01:34:55;20.87;;;5.17;;
2802;SDS011;1409;51.154;6.938;2024-01-25T01:37:24;21.20;;;5.10;;
2802;SDS011;1409;51.154;6.938;2024-01-25T01:39:53;19.30;;;5.53;;
2802;SDS011;1409;51.154;6.938;2024-01-25T01:42:22;18.20;;;4.00;;
2802;SDS011;1409;51.154;6.938;2024-01-25T01:44:52;19.13;;;5.87;;
2802;SDS011;1409;51.154;6.938;2024-01-25T01:47:20;20.07;;;4.70;;
2802;SDS011;1409;51.154;6.938;2024-01-25T01:49:49;18.27;;;4.80;;
2802;SDS011;1409;51.154;6.938;2024-01-25T01:52:18;21.23;;;4.63;;
2802;SDS011;1409;51.154;6.938;2024-01-25T01:54:47;17.37;;;4.67;;
2802;SDS011;1409;51.154;6.938;2024-01-25T01:57:16;14.73;;;5.30;;
2802;SDS011;1409;51.154;6.938;2024-01-25T01:59:45;15.30;;;4.97;;
2802;SDS011;1409;51.154;6.938;2024-01-25T02:02:17;20.77;;;5.40;;
2802;SDS011;1409;51.154;6.938;2024-01-25T02:04:45;14.23;;;4.30;;
2802;SDS011;1409;51.154;6.938;2024-01-25T02:07:14;16.40;;;5.23;;
2802;SDS011;1409;51.154;6.938;2024-01-25T02:09:43;19.03;;;4.13;;
2802;SDS011;1409;51.154;6.938;2024-01-25T02:12:14;15.43;;;4.50;;
2802;SDS011;1409;51.154;6.938;2024-01-25T02:14:43;13.63;;;4.33;;
2802;SDS011;1409;51.154;6.938;2024-01-25T02:17:12;14.63;;;3.80;;
2802;SDS011;1409;51.154;6.938;2024-01-25T02:19:42;14.57;;;5.30;;
2802;SDS011;1409;51.154;6.938;2024-01-25T02:24:41;15.23;;;4.13;;
2802;SDS011;1409;51.154;6.938;2024-01-25T02:27:10;19.77;;;4.60;;
2802;SDS011;1409;51.154;6.938;2024-01-25T02:29:38;20.07;;;4.27;;
2802;SDS011;1409;51.154;6.938;2024-01-25T02:32:07;16.33;;;4.27;;
2802;SDS011;1409;51.154;6.938;2024-01-25T02:34:35;24.87;;;5.43;;
2802;SDS011;1409;51.154;6.938;2024-01-25T02:37:04;16.30;;;4.40;;
2802;SDS011;1409;51.154;6.938;2024-01-25T02:39:33;21.03;;;4.40;;
2802;SDS011;1409;51.154;6.938;2024-01-25T02:42:03;15.13;;;4.63;;
2802;SDS011;1409;51.154;6.938;2024-01-25T02:44:32;18.77;;;4.67;;
2802;SDS011;1409;51.154;6.938;2024-01-25T02:47:01;18.70;;;4.20;;
2802;SDS011;1409;51.154;6.938;2024-01-25T02:49:29;16.00;;;4.33;;
2802;SDS011;1409;51.154;6.938;2024-01-25T02:51:58;18.63;;;4.03;;
2802;SDS011;1409;51.154;6.938;2024-01-25T02:54:27;23.27;;;4.50;;
2802;SDS011;1409;51.154;6.938;2024-01-25T02:56:55;20.77;;;5.17;;
2802;SDS011;1409;51.154;6.938;2024-01-25T02:59:25;19.30;;;4.23;;
2802;SDS011;1409;51.154;6.938;2024-01-25T03:01:54;16.43;;;5.37;;
2802;SDS011;1409;51.154;6.938;2024-01-25T03:04:23;21.40;;;5.13;;
2802;SDS011;1409;51.154;6.938;2024-01-25T03:06:52;17.07;;;4.80;;
2802;SDS011;1409;51.154;6.938;2024-01-25T03:09:21;22.07;;;4.20;;
2802;SDS011;1409;51.154;6.938;2024-01-25T03:11:50;16.93;;;4.23;;
2802;SDS011;1409;51.154;6.938;2024-01-25T03:14:17;13.47;;;3.70;;
2802;SDS011;1409;51.154;6.938;2024-01-25T03:16:47;16.10;;;4.20;;
2802;SDS011;1409;51.154;6.938;2024-01-25T03:19:18;21.10;;;5.07;;
2802;SDS011;1409;51.154;6.938;2024-01-25T03:21:46;13.93;;;4.07;;
2802;SDS011;1409;51.154;6.938;2024-01-25T03:24:16;19.10;;;5.30;;
2802;SDS011;1409;51.154;6.938;2024-01-25T03:26:44;13.00;;;4.27;;
2802;SDS011;1409;51.154;6.938;2024-01-25T03:29:13;15.00;;;4.50;;
2802;SDS011;1409;51.154;6.938;2024-01-25T03:31:41;12.97;;;4.30;;
2802;SDS011;1409;51.154;6.938;2024-01-25T03:34:12;16.27;;;4.93;;
2802;SDS011;1409;51.154;6.938;2024-01-25T03:36:41;16.30;;;4.20;;
2802;SDS011;1409;51.154;6.938;2024-01-25T03:39:10;13.80;;;4.47;;
2802;SDS011;1409;51.154;6.938;2024-01-25T03:41:39;25.07;;;5.83;;
2802;SDS011;1409;51.154;6.938;2024-01-25T03:44:07;14.67;;;4.20;;
2802;SDS011;1409;51.154;6.938;2024-01-25T03:46:36;20.70;;;4.40;;
2802;SDS011;1409;51.154;6.938;2024-01-25T03:49:04;14.00;;;4.40;;
2802;SDS011;1409;51.154;6.938;2024-01-25T03:51:35;17.93;;;4.57;;
2802;SDS011;1409;51.154;6.938;2024-01-25T03:54:03;17.20;;;5.00;;
2802;SDS011;1409;51.154;6.938;2024-01-25T03:56:32;17.10;;;4.70;;
2802;SDS011;1409;51.154;6.938;2024-01-25T03:59:00;18.57;;;5.50;;
2802;SDS011;1409;51.154;6.938;2024-01-25T04:01:29;19.23;;;4.23;;
2802;SDS011;1409;51.154;6.938;2024-01-25T04:03:58;18.17;;;5.23;;
2802;SDS011;1409;51.154;6.938;2024-01-25T04:06:27;25.97;;;5.20;;
2802;SDS011;1409;51.154;6.938;2024-01-25T04:08:57;11.37;;;4.43;;
2802;SDS011;1409;51.154;6.938;2024-01-25T04:11:26;23.70;;;5.17;;
2802;SDS011;1409;51.154;6.938;2024-01-25T04:13:54;15.17;;;5.40;;
2802;SDS011;1409;51.154;6.938;2024-01-25T04:16:23;16.53;;;4.20;;
2802;SDS011;1409;51.154;6.938;2024-01-25T04:18:52;12.67;;;4.80;;
2802;SDS011;1409;51.154;6.938;2024-01-25T04:21:21;15.37;;;5.27;;
2802;SDS011;1409;51.154;6.938;2024-01-25T04:23:49;16.23;;;5.33;;
2802;SDS011;1409;51.154;6.938;2024-01-25T04:26:19;12.97;;;3.83;;
2802;SDS011;1409;51.154;6.938;2024-01-25T04:28:48;20.87;;;6.03;;
2802;SDS011;1409;51.154;6.938;2024-01-25T04:31:17;14.37;;;4.20;;
2802;SDS011;1409;51.154;6.938;2024-01-25T04:33:47;16.73;;;4.53;;
2802;SDS011;1409;51.154;6.938;2024-01-25T04:36:16;25.90;;;5.13;;
2802;SDS011;1409;51.154;6.938;2024-01-25T04:38:44;21.20;;;5.10;;
2802;SDS011;1409;51.154;6.938;2024-01-25T04:41:13;22.00;;;4.83;;
2802;SDS011;1409;51.154;6.938;2024-01-25T04:43:43;14.27;;;4.43;;
2802;SDS011;1409;51.154;6.938;2024-01-25T04:46:12;16.67;;;4.67;;
2802;SDS011;1409;51.154;6.938;2024-01-25T04:48:41;15.60;;;4.40;;
2802;SDS011;1409;51.154;6.938;2024-01-25T04:51:14;15.20;;;5.03;;
2802;SDS011;1409;51.154;6.938;2024-01-25T04:53:43;18.53;;;4.60;;
2802;SDS011;1409;51.154;6.938;2024-01-25T04:56:11;16.60;;;5.00;;
2802;SDS011;1409;51.154;6.938;2024-01-25T04:58:40;21.83;;;4.00;;
2802;SDS011;1409;51.154;6.938;2024-01-25T05:01:10;25.67;;;5.47;;
2802;SDS011;1409;51.154;6.938;2024-01-25T05:03:39;17.43;;;5.20;;
2802;SDS011;1409;51.154;6.938;2024-01-25T05:06:08;19.67;;;4.60;;
2802;SDS011;1409;51.154;6.938;2024-01-25T05:08:38;14.00;;;4.00;;
2802;SDS011;1409;51.154;6.938;2024-01-25T05:11:06;14.97;;;3.77;;
2802;SDS011;1409;51.154;6.938;2024-01-25T05:13:35;21.23;;;6.40;;
2802;SDS011;1409;51.154;6.938;2024-01-25T05:16:04;16.50;;;3.87;;
2802;SDS011;1409;51.154;6.938;2024-01-25T05:18:34;15.77;;;4.63;;
2802;SDS011;1409;51.154;6.938;2024-01-25T05:21:03;19.67;;;4.57;;
2802;SDS011;1409;51.154;6.938;2024-01-25T05:23:32;12.17;;;4.30;;
2802;SDS011;1409;51.154;6.938;2024-01-25T05:26:01;14.20;;;5.00;;
2802;SDS011;1409;51.154;6.938;2024-01-25T05:28:30;18.40;;;4.57;;
2802;SDS011;1409;51.154;6.938;2024-01-25T05:30:58;21.40;;;4.77;;
2802;SDS011;1409;51.154;6.938;2024-01-25T05:33:32;12.93;;;3.73;;
2802;SDS011;1409;51.154;6.938;2024-01-25T05:36:02;20.50;;;4.40;;
2802;SDS011;1409;51.154;6.938;2024-01-25T05:38:31;16.37;;;3.83;;
2802;SDS011;1409;51.154;6.938;2024-01-25T05:40:59;13.03;;;3.80;;
2802;SDS011;1409;51.154;6.938;2024-01-25T05:43:28;14.50;;;3.90;;
2802;SDS011;1409;51.154;6.938;2024-01-25T05:45:57;14.33;;;3.97;;
2802;SDS011;1409;51.154;6.938;2024-01-25T05:48:30;16.67;;;4.27;;
2802;SDS011;1409;51.154;6.938;2024-01-25T05:50:59;14.63;;;3.43;;
2802;SDS011;1409;51.154;6.938;2024-01-25T05:53:29;11.97;;;4.80;;
2802;SDS011;1409;51.154;6.938;2024-01-25T05:55:58;24.93;;;5.57;;
2802;SDS011;1409;51.154;6.938;2024-01-25T05:58:27;21.40;;;5.07;;
2802;SDS011;1409;51.154;6.938;2024-01-25T06:00:55;19.07;;;5.13;;
2802;SDS011;1409;51.154;6.938;2024-01-25T06:03:24;14.80;;;4.73;;
2802;SDS011;1409;51.154;6.938;2024-01-25T06:05:53;21.80;;;4.77;;
2802;SDS011;1409;51.154;6.938;2024-01-25T06:08:22;16.53;;;5.17;;
2802;SDS011;1409;51.154;6.938;2024-01-25T06:10:52;21.90;;;4.47;;
2802;SDS011;1409;51.154;6.938;2024-01-25T06:13:21;24.33;;;5.60;;
2802;SDS011;1409;51.154;6.938;2024-01-25T06:15:49;14.77;;;5.33;;
2802;SDS011;1409;51.154;6.938;2024-01-25T06:18:18;18.77;;;4.97;;
2802;SDS011;1409;51.154;6.938;2024-01-25T06:20:49;19.73;;;5.63;;
2802;SDS011;1409;51.154;6.938;2024-01-25T06:23:18;13.27;;;4.73;;
2802;SDS011;1409;51.154;6.938;2024-01-25T06:25:46;14.70;;;4.87;;
2802;SDS011;1409;51.154;6.938;2024-01-25T06:28:18;12.77;;;4.97;;
2802;SDS011;1409;51.154;6.938;2024-01-25T06:30:47;22.93;;;5.87;;
2802;SDS011;1409;51.154;6.938;2024-01-25T06:33:15;18.73;;;5.73;;
2802;SDS011;1409;51.154;6.938;2024-01-25T06:35:44;19.37;;;5.37;;
2802;SDS011;1409;51.154;6.938;2024-01-25T06:38:13;17.40;;;5.83;;
2802;SDS011;1409;51.154;6.938;2024-01-25T06:40:42;17.70;;;5.47;;
2802;SDS011;1409;51.154;6.938;2024-01-25T06:43:10;14.20;;;4.90;;
2802;SDS011;1409;51.154;6.938;2024-01-25T06:45:41;11.20;;;4.60;;
2802;SDS011;1409;51.154;6.938;2024-01-25T06:48:09;16.43;;;5.17;;
2802;SDS011;1409;51.154;6.938;2024-01-25T06:50:38;16.50;;;5.13;;
2802;SDS011;1409;51.154;6.938;2024-01-25T06:53:07;13.57;;;4.43;;
2802;SDS011;1409;51.154;6.938;2024-01-25T06:55:36;18.77;;;5.03;;
2802;SDS011;1409;51.154;6.938;2024-01-25T06:58:05;17.27;;;4.97;;
2802;SDS011;1409;51.154;6.938;2024-01-25T07:00:34;24.13;;;6.77;;
2802;SDS011;1409;51.154;6.938;2024-01-25T07:03:07;28.47;;;7.20;;
2802;SDS011;1409;51.154;6.938;2024-01-25T07:05:38;19.10;;;5.97;;
2802;SDS011;1409;51.154;6.938;2024-01-25T07:08:06;14.57;;;5.20;;
2802;SDS011;1409;51.154;6.938;2024-01-25T07:10:39;24.60;;;7.50;;
2802;SDS011;1409;51.154;6.938;2024-01-25T07:13:08;22.60;;;8.07;;
2802;SDS011;1409;51.154;6.938;2024-01-25T07:15:37;18.43;;;7.27;;
2802;SDS011;1409;51.154;6.938;2024-01-25T07:18:07;21.37;;;6.77;;
2802;SDS011;1409;51.154;6.938;2024-01-25T07:20:36;14.57;;;6.83;;
2802;SDS011;1409;51.154;6.938;2024-01-25T07:23:05;18.20;;;6.23;;
2802;SDS011;1409;51.154;6.938;2024-01-25T07:25:39;15.80;;;5.33;;
2802;SDS011;1409;51.154;6.938;2024-01-25T07:28:08;16.23;;;7.93;;
2802;SDS011;1409;51.154;6.938;2024-01-25T07:30:36;16.20;;;6.87;;
2802;SDS011;1409;51.154;6.938;2024-01-25T07:33:05;22.80;;;8.77;;
2802;SDS011;1409;51.154;6.938;2024-01-25T07:35:39;13.70;;;6.70;;
2802;SDS011;1409;51.154;6.938;2024-01-25T07:38:14;22.17;;;6.90;;
2802;SDS011;1409;51.154;6.938;2024-01-25T07:40:43;13.00;;;5.77;;
2802;SDS011;1409;51.154;6.938;2024-01-25T07:43:14;16.73;;;5.27;;
2802;SDS011;1409;51.154;6.938;2024-01-25T07:45:43;15.13;;;6.30;;
2802;SDS011;1409;51.154;6.938;2024-01-25T07:48:16;16.50;;;6.87;;
2802;SDS011;1409;51.154;6.938;2024-01-25T07:50:49;24.70;;;7.57;;
2802;SDS011;1409;51.154;6.938;2024-01-25T07:53:17;20.73;;;6.93;;
2802;SDS011;1409;51.154;6.938;2024-01-25T07:55:46;22.23;;;7.60;;
2802;SDS011;1409;51.154;6.938;2024-01-25T07:58:17;12.23;;;4.93;;
2802;SDS011;1409;51.154;6.938;2024-01-25T08:00:45;15.70;;;5.40;;
2802;SDS011;1409;51.154;6.938;2024-01-25T08:03:15;9.97;;;4.93;;
2802;SDS011;1409;51.154;6.938;2024-01-25T08:05:44;12.93;;;5.87;;
2802;SDS011;1409;51.154;6.938;2024-01-25T08:08:18;14.77;;;6.90;;
2802;SDS011;1409;51.154;6.938;2024-01-25T08:10:50;16.23;;;4.97;;
2802;SDS011;1409;51.154;6.938;2024-01-25T08:13:19;17.47;;;6.50;;
2802;SDS011;1409;51.154;6.938;2024-01-25T08:15:48;22.13;;;6.03;;
2802;SDS011;1409;51.154;6.938;2024-01-25T08:18:17;15.83;;;5.40;;
2802;SDS011;1409;51.154;6.938;2024-01-25T08:20:49;18.90;;;6.17;;
2802;SDS011;1409;51.154;6.938;2024-01-25T08:23:21;17.07;;;8.07;;
2802;SDS011;1409;51.154;6.938;2024-01-25T08:25:50;17.77;;;7.90;;
2802;SDS011;1409;51.154;6.938;2024-01-25T08:28:22;22.00;;;8.60;;
2802;SDS011;1409;51.154;6.938;2024-01-25T08:30:52;32.27;;;9.53;;
2802;SDS011;1409;51.154;6.938;2024-01-25T08:33:20;18.43;;;9.27;;
2802;SDS011;1409;51.154;6.938;2024-01-25T08:35:51;23.07;;;9.00;;
2802;SDS011;1409;51.154;6.938;2024-01-25T08:38:21;27.93;;;11.83;;
2802;SDS011;1409;51.154;6.938;2024-01-25T08:40:52;19.10;;;7.37;;
2802;SDS011;1409;51.154;6.938;2024-01-25T08:43:21;14.60;;;6.90;;
2802;SDS011;1409;51.154;6.938;2024-01-25T08:45:50;17.10;;;6.97;;
2802;SDS011;1409;51.154;6.938;2024-01-25T08:48:18;19.87;;;7.17;;
2802;SDS011;1409;51.154;6.938;2024-01-25T08:50:47;23.83;;;7.37;;
2802;SDS011;1409;51.154;6.938;2024-01-25T08:53:21;24.20;;;8.03;;
2802;SDS011;1409;51.154;6.938;2024-01-25T08:55:53;16.43;;;6.47;;
2802;SDS011;1409;51.154;6.938;2024-01-25T08:58:22;20.87;;;6.80;;
2802;SDS011;1409;51.154;6.938;2024-01-25T09:00:54;23.90;;;6.53;;
2802;SDS011;1409;51.154;6.938;2024-01-25T09:03:23;18.10;;;6.57;;
2802;SDS011;1409;51.154;6.938;2024-01-25T09:05:51;18.03;;;5.97;;
2802;SDS011;1409;51.154;6.938;2024-01-25T09:08:25;18.70;;;6.90;;
2802;SDS011;1409;51.154;6.938;2024-01-25T09:10:54;25.07;;;7.90;;
2802;SDS011;1409;51.154;6.938;2024-01-25T09:13:24;15.20;;;7.10;;
2802;SDS011;1409;51.154;6.938;2024-01-25T09:15:52;18.37;;;6.70;;
2802;SDS011;1409;51.154;6.938;2024-01-25T09:18:21;18.63;;;6.63;;
2802;SDS011;1409;51.154;6.938;2024-01-25T09:20:50;17.43;;;5.97;;
2802;SDS011;1409;51.154;6.938;2024-01-25T09:23:19;15.90;;;6.77;;
2802;SDS011;1409;51.154;6.938;2024-01-25T09:25:49;13.97;;;5.33;;
2802;SDS011;1409;51.154;6.938;2024-01-25T09:28:19;20.77;;;7.17;;
2802;SDS011;1409;51.154;6.938;2024-01-25T09:30:47;19.73;;;6.97;;
2802;SDS011;1409;51.154;6.938;2024-01-25T09:33:18;23.77;;;7.60;;
2802;SDS011;1409;51.154;6.938;2024-01-25T09:35:47;18.63;;;6.97;;
2802;SDS011;1409;51.154;6.938;2024-01-25T09:38:18;20.20;;;6.93;;
2802;SDS011;1409;51.154;6.938;2024-01-25T09:40:47;20.83;;;7.13;;
2802;SDS011;1409;51.154;6.938;2024-01-25T09:43:18;18.00;;;6.70;;
2802;SDS011;1409;51.154;6.938;2024-01-25T09:45:50;22.70;;;7.47;;
2802;SDS011;1409;51.154;6.938;2024-01-25T09:48:21;23.33;;;6.53;;
2802;SDS011;1409;51.154;6.938;2024-01-25T09:50:53;22.70;;;8.17;;
2802;SDS011;1409;51.154;6.938;2024-01-25T09:53:23;25.07;;;7.13;;
2802;SDS011;1409;51.154;6.938;2024-01-25T09:55:54;18.07;;;5.97;;
2802;SDS011;1409;51.154;6.938;2024-01-25T09:58:38;23.87;;;7.60;;
2802;SDS011;1409;51.154;6.938;2024-01-25T10:01:11;21.57;;;7.67;;
2802;SDS011;1409;51.154;6.938;2024-01-25T10:03:42;26.47;;;7.27;;
2802;SDS011;1409;51.154;6.938;2024-01-25T10:06:11;20.53;;;7.13;;
2802;SDS011;1409;51.154;6.938;2024-01-25T10:08:40;18.50;;;7.30;;
2802;SDS011;1409;51.154;6.938;2024-01-25T10:11:10;20.03;;;6.63;;
2802;SDS011;1409;51.154;6.938;2024-01-25T10:13:43;17.10;;;6.53;;
2802;SDS011;1409;51.154;6.938;2024-01-25T10:16:11;16.23;;;6.17;;
2802;SDS011;1409;51.154;6.938;2024-01-25T10:18:45;18.53;;;6.73;;
2802;SDS011;1409;51.154;6.938;2024-01-25T10:21:16;22.63;;;6.73;;
2802;SDS011;1409;51.154;6.938;2024-01-25T10:23:49;21.30;;;7.00;;
2802;SDS011;1409;51.154;6.938;2024-01-25T10:26:21;19.37;;;7.30;;
2802;SDS011;1409;51.154;6.938;2024-01-25T10:28:57;18.03;;;6.80;;
2802;SDS011;1409;51.154;6.938;2024-01-25T10:31:29;22.30;;;7.50;;
2802;SDS011;1409;51.154;6.938;2024-01-25T10:33:59;22.70;;;7.83;;
2802;SDS011;1409;51.154;6.938;2024-01-25T10:36:31;24.53;;;8.30;;
2802;SDS011;1409;51.154;6.938;2024-01-25T10:39:04;25.27;;;8.23;;
2802;SDS011;1409;51.154;6.938;2024-01-25T10:41:35;21.43;;;7.30;;
2802;SDS011;1409;51.154;6.938;2024-01-25T10:44:06;22.87;;;8.27;;
2802;SDS011;1409;51.154;6.938;2024-01-25T10:46:38;22.30;;;7.70;;
2802;SDS011;1409;51.154;6.938;2024-01-25T10:49:11;18.33;;;7.30;;
2802;SDS011;1409;51.154;6.938;2024-01-25T10:51:46;20.77;;;7.53;;
2802;SDS011;1409;51.154;6.938;2024-01-25T10:54:15;20.83;;;7.47;;
2802;SDS011;1409;51.154;6.938;2024-01-25T10:56:46;25.97;;;9.00;;
2802;SDS011;1409;51.154;6.938;2024-01-25T10:59:27;20.70;;;8.17;;
2802;SDS011;1409;51.154;6.938;2024-01-25T11:01:57;24.83;;;7.43;;
2802;SDS011;1409;51.154;6.938;2024-01-25T11:04:29;20.27;;;7.40;;
2802;SDS011;1409;51.154;6.938;2024-01-25T11:07:07;26.73;;;7.90;;
2802;SDS011;1409;51.154;6.938;2024-01-25T11:09:40;28.27;;;9.57;;
2802;SDS011;1409;51.154;6.938;2024-01-25T11:12:11;16.47;;;7.43;;
2802;SDS011;1409;51.154;6.938;2024-01-25T11:14:43;28.10;;;7.33;;
2802;SDS011;1409;51.154;6.938;2024-01-25T11:17:18;26.40;;;7.33;;
2802;SDS011;1409;51.154;6.938;2024-01-25T11:19:59;20.70;;;7.70;;
2802;SDS011;1409;51.154;6.938;2024-01-25T11:22:35;28.83;;;8.57;;
2802;SDS011;1409;51.154;6.938;2024-01-25T11:25:10;19.70;;;7.10;;
2802;SDS011;1409;51.154;6.938;2024-01-25T11:27:42;24.13;;;7.23;;
2802;SDS011;1409;51.154;6.938;2024-01-25T11:33:21;22.70;;;7.63;;
2802;SDS011;1409;51.154;6.938;2024-01-25T11:35:54;22.10;;;8.63;;
2802;SDS011;1409;51.154;6.938;2024-01-25T11:38:30;22.20;;;9.13;;
2802;SDS011;1409;51.154;6.938;2024-01-25T11:40:59;19.60;;;9.90;;
2802;SDS011;1409;51.154;6.938;2024-01-25T11:43:30;27.03;;;9.73;;
2802;SDS011;1409;51.154;6.938;2024-01-25T11:46:10;23.63;;;8.97;;
2802;SDS011;1409;51.154;6.938;2024-01-25T11:48:43;26.37;;;9.37;;
2802;SDS011;1409;51.154;6.938;2024-01-25T11:51:14;34.17;;;11.27;;
2802;SDS011;1409;51.154;6.938;2024-01-25T11:54:00;26.67;;;9.40;;
2802;SDS011;1409;51.154;6.938;2024-01-25T11:56:35;24.47;;;10.40;;
2802;SDS011;1409;51.154;6.938;2024-01-25T11:59:12;23.63;;;9.37;;
2802;SDS011;1409;51.154;6.938;2024-01-25T12:01:43;24.20;;;9.47;;
2802;SDS011;1409;51.154;6.938;2024-01-25T12:04:18;27.43;;;10.53;;
2802;SDS011;1409;51.154;6.938;2024-01-25T12:07:05;24.13;;;10.30;;
2802;SDS011;1409;51.154;6.938;2024-01-25T12:09:43;16.77;;;9.07;;
2802;SDS011;1409;51.154;6.938;2024-01-25T12:12:30;21.83;;;9.37;;
2802;SDS011;1409;51.154;6.938;2024-01-25T12:15:04;24.17;;;10.20;;
2802;SDS011;1409;51.154;6.938;2024-01-25T12:17:42;24.67;;;9.83;;
2802;SDS011;1409;51.154;6.938;2024-01-25T12:20:22;26.23;;;10.83;;
2802;SDS011;1409;51.154;6.938;2024-01-25T12:22:58;22.70;;;9.33;;
2802;SDS011;1409;51.154;6.938;2024-01-25T12:25:28;22.43;;;10.00;;
2802;SDS011;1409;51.154;6.938;2024-01-25T12:27:59;30.50;;;10.63;;
2802;SDS011;1409;51.154;6.938;2024-01-25T12:30:35;27.70;;;12.00;;
2802;SDS011;1409;51.154;6.938;2024-01-25T12:33:12;27.07;;;10.93;;
2802;SDS011;1409;51.154;6.938;2024-01-25T12:35:55;26.13;;;9.40;;
2802;SDS011;1409;51.154;6.938;2024-01-25T12:38:29;26.73;;;10.33;;
2802;SDS011;1409;51.154;6.938;2024-01-25T12:41:04;24.57;;;9.50;;
2802;SDS011;1409;51.154;6.938;2024-01-25T12:43:33;23.60;;;10.00;;
2802;SDS011;1409;51.154;6.938;2024-01-25T12:46:05;23.83;;;9.67;;
2802;SDS011;1409;51.154;6.938;2024-01-25T12:48:54;29.83;;;11.50;;
2802;SDS011;1409;51.154;6.938;2024-01-25T12:51:28;25.23;;;10.03;;
2802;SDS011;1409;51.154;6.938;2024-01-25T12:53:59;23.50;;;9.70;;
2802;SDS011;1409;51.154;6.938;2024-01-25T12:56:36;22.17;;;8.80;;
2802;SDS011;1409;51.154;6.938;2024-01-25T12:59:05;24.87;;;9.70;;
2802;SDS011;1409;51.154;6.938;2024-01-25T13:01:38;24.80;;;10.47;;
2802;SDS011;1409;51.154;6.938;2024-01-25T13:04:13;21.80;;;9.63;;
2802;SDS011;1409;51.154;6.938;2024-01-25T13:06:43;26.07;;;9.63;;
2802;SDS011;1409;51.154;6.938;2024-01-25T13:09:15;21.10;;;8.73;;
2802;SDS011;1409;51.154;6.938;2024-01-25T13:11:44;24.83;;;9.63;;
2802;SDS011;1409;51.154;6.938;2024-01-25T13:14:13;18.27;;;9.43;;
2802;SDS011;1409;51.154;6.938;2024-01-25T13:16:42;18.23;;;7.97;;
2802;SDS011;1409;51.154;6.938;2024-01-25T13:19:11;24.23;;;8.60;;
2802;SDS011;1409;51.154;6.938;2024-01-25T13:21:41;20.67;;;7.80;;
2802;SDS011;1409;51.154;6.938;2024-01-25T13:24:14;20.30;;;8.33;;
2802;SDS011;1409;51.154;6.938;2024-01-25T13:26:43;25.47;;;8.97;;
2802;SDS011;1409;51.154;6.938;2024-01-25T13:29:15;21.10;;;8.33;;
2802;SDS011;1409;51.154;6.938;2024-01-25T13:31:51;21.20;;;7.23;;
2802;SDS011;1409;51.154;6.938;2024-01-25T13:34:23;25.13;;;7.43;;
2802;SDS011;1409;51.154;6.938;2024-01-25T13:36:58;17.07;;;7.33;;
2802;SDS011;1409;51.154;6.938;2024-01-25T13:39:30;15.93;;;6.70;;
2802;SDS011;1409;51.154;6.938;2024-01-25T13:42:09;21.20;;;7.10;;
2802;SDS011;1409;51.154;6.938;2024-01-25T13:44:40;17.70;;;6.33;;
2802;SDS011;1409;51.154;6.938;2024-01-25T13:47:11;21.17;;;6.80;;
2802;SDS011;1409;51.154;6.938;2024-01-25T13:49:44;24.90;;;7.57;;
2802;SDS011;1409;51.154;6.938;2024-01-25T13:52:24;19.87;;;6.80;;
2802;SDS011;1409;51.154;6.938;2024-01-25T13:54:59;24.90;;;7.13;;
2802;SDS011;1409;51.154;6.938;2024-01-25T13:57:28;20.73;;;6.90;;
2802;SDS011;1409;51.154;6.938;2024-01-25T13:59:57;16.27;;;6.33;;
2802;SDS011;1409;51.154;6.938;2024-01-25T14:02:25;15.77;;;5.93;;
2802;SDS011;1409;51.154;6.938;2024-01-25T14:04:54;20.10;;;6.80;;
2802;SDS011;1409;51.154;6.938;2024-01-25T14:07:23;16.93;;;6.37;;
2802;SDS011;1409;51.154;6.938;2024-01-25T14:09:52;20.47;;;7.07;;
2802;SDS011;1409;51.154;6.938;2024-01-25T14:12:29;22.17;;;6.40;;
2802;SDS011;1409;51.154;6.938;2024-01-25T14:14:57;18.80;;;5.87;;
2802;SDS011;1409;51.154;6.938;2024-01-25T14:17:26;17.93;;;6.40;;
2802;SDS011;1409;51.154;6.938;2024-01-25T14:19:55;15.97;;;5.27;;
2802;SDS011;1409;51.154;6.938;2024-01-25T14:22:29;22.90;;;4.77;;
2802;SDS011;1409;51.154;6.938;2024-01-25T14:25:03;21.00;;;5.20;;
2802;SDS011;1409;51.154;6.938;2024-01-25T14:27:33;15.87;;;5.83;;
2802;SDS011;1409;51.154;6.938;2024-01-25T14:30:02;17.23;;;6.07;;
2802;SDS011;1409;51.154;6.938;2024-01-25T14:32:35;13.60;;;5.90;;
2802;SDS011;1409;51.154;6.938;2024-01-25T14:35:06;16.87;;;5.80;;
2802;SDS011;1409;51.154;6.938;2024-01-25T14:37:41;15.43;;;5.50;;
2802;SDS011;1409;51.154;6.938;2024-01-25T14:40:10;16.27;;;6.13;;
2802;SDS011;1409;51.154;6.938;2024-01-25T14:43:03;16.47;;;5.77;;
2802;SDS011;1409;51.154;6.938;2024-01-25T14:45:33;12.27;;;5.07;;
2802;SDS011;1409;51.154;6.938;2024-01-25T14:48:03;16.47;;;5.57;;
2802;SDS011;1409;51.154;6.938;2024-01-25T14:50:34;20.20;;;5.37;;
2802;SDS011;1409;51.154;6.938;2024-01-25T14:53:02;18.23;;;5.83;;
2802;SDS011;1409;51.154;6.938;2024-01-25T14:55:34;13.27;;;5.77;;
2802;SDS011;1409;51.154;6.938;2024-01-25T14:58:04;14.40;;;5.50;;
2802;SDS011;1409;51.154;6.938;2024-01-25T15:00:37;14.83;;;5.57;;
2802;SDS011;1409;51.154;6.938;2024-01-25T15:03:06;18.20;;;6.37;;
2802;SDS011;1409;51.154;6.938;2024-01-25T15:05:38;17.17;;;5.63;;
2802;SDS011;1409;51.154;6.938;2024-01-25T15:08:07;19.13;;;5.67;;
2802;SDS011;1409;51.154;6.938;2024-01-25T15:10:38;16.70;;;5.70;;
2802;SDS011;1409;51.154;6.938;2024-01-25T15:13:08;18.13;;;5.67;;
2802;SDS011;1409;51.154;6.938;2024-01-25T15:15:37;17.77;;;5.70;;
2802;SDS011;1409;51.154;6.938;2024-01-25T15:18:12;13.83;;;5.90;;
2802;SDS011;1409;51.154;6.938;2024-01-25T15:20:42;18.27;;;5.27;;
2802;SDS011;1409;51.154;6.938;2024-01-25T15:23:10;17.70;;;5.60;;
2802;SDS011;1409;51.154;6.938;2024-01-25T15:25:39;13.13;;;5.37;;